createdAt,value
2019-04-29T00:00:29.867Z,1015.11
2019-04-29T00:01:28.432Z,1015.13
2019-04-29T00:02:28.415Z,1015.11
2019-04-29T00:03:28.402Z,1015.06
2019-04-29T00:04:28.393Z,1015.06
2019-04-29T00:05:28.366Z,1015.07
2019-04-29T00:06:28.343Z,1015.06
2019-04-29T00:07:28.329Z,1015.09
2019-04-29T00:08:28.308Z,1015.06
2019-04-29T00:09:30.874Z,1015.08
2019-04-29T00:10:28.270Z,1015.06
2019-04-29T00:11:28.251Z,1015.03
2019-04-29T00:12:28.232Z,1015.06
2019-04-29T00:13:28.220Z,1015.03
2019-04-29T00:14:28.202Z,1015.07
2019-04-29T00:15:28.182Z,1015.02
2019-04-29T00:16:28.165Z,1015.07
2019-04-29T00:17:28.145Z,1015.08
2019-04-29T00:18:28.125Z,1015.08
2019-04-29T00:19:28.113Z,1015.04
2019-04-29T00:20:28.089Z,1015.07
2019-04-29T00:21:28.071Z,1015.09
2019-04-29T00:22:28.054Z,1015.05
2019-04-29T00:23:28.032Z,1015.06
2019-04-29T00:24:28.016Z,1015.06
2019-04-29T00:25:27.998Z,1015.06
2019-04-29T00:26:27.978Z,1015.08
2019-04-29T00:27:27.962Z,1015.07
2019-04-29T00:28:27.942Z,1015.06
2019-04-29T00:29:27.924Z,1015.04
2019-04-29T00:30:27.904Z,1015.06
2019-04-29T00:31:27.934Z,1015.05
2019-04-29T00:32:27.864Z,1015.04
2019-04-29T00:33:27.850Z,1015.01
2019-04-29T00:34:27.830Z,1015.02
2019-04-29T00:35:27.817Z,1014.99
2019-04-29T00:36:27.794Z,1014.99
2019-04-29T00:37:27.824Z,1015.00
2019-04-29T00:38:27.762Z,1015.01
2019-04-29T00:39:27.743Z,1014.99
2019-04-29T00:40:27.720Z,1015.01
2019-04-29T00:41:27.704Z,1014.95
2019-04-29T00:42:27.686Z,1015.01
2019-04-29T00:43:27.670Z,1015.03
2019-04-29T00:44:27.652Z,1015.00
2019-04-29T00:45:27.632Z,1014.99
2019-04-29T00:46:27.622Z,1014.99
2019-04-29T00:47:27.599Z,1015.01
2019-04-29T00:48:27.578Z,1015.05
2019-04-29T00:49:27.556Z,1015.05
2019-04-29T00:50:27.538Z,1015.03
2019-04-29T00:51:27.520Z,1015.00
2019-04-29T00:52:27.500Z,1015.01
2019-04-29T00:53:27.486Z,1015.00
2019-04-29T00:54:27.466Z,1015.02
2019-04-29T00:55:27.448Z,1015.02
2019-04-29T00:56:27.428Z,1015.00
2019-04-29T00:57:27.423Z,1014.98
2019-04-29T00:58:27.396Z,1015.02
2019-04-29T00:59:27.373Z,1014.99
2019-04-29T01:00:27.356Z,1015.00
2019-04-29T01:01:27.343Z,1015.00
2019-04-29T01:02:27.318Z,1014.99
2019-04-29T01:03:27.305Z,1014.99
2019-04-29T01:04:27.285Z,1014.98
2019-04-29T01:05:27.264Z,1014.99
2019-04-29T01:06:27.247Z,1014.98
2019-04-29T01:07:27.225Z,1015.04
2019-04-29T01:08:27.207Z,1015.06
2019-04-29T01:09:27.190Z,1015.02
2019-04-29T01:10:27.175Z,1015.02
2019-04-29T01:11:27.152Z,1015.03
2019-04-29T01:12:27.140Z,1015.04
2019-04-29T01:13:27.124Z,1015.01
2019-04-29T01:14:27.100Z,1015.05
2019-04-29T01:15:27.088Z,1015.03
2019-04-29T01:16:27.064Z,1015.01
2019-04-29T01:17:27.115Z,1015.03
2019-04-29T01:18:27.025Z,1015.01
2019-04-29T01:19:27.009Z,1015.00
2019-04-29T01:20:26.993Z,1014.98
2019-04-29T01:21:26.985Z,1014.98
2019-04-29T01:22:26.952Z,1014.96
2019-04-29T01:23:26.937Z,1014.99
2019-04-29T01:24:26.925Z,1014.96
2019-04-29T01:25:26.903Z,1014.94
2019-04-29T01:26:26.884Z,1015.00
2019-04-29T01:27:26.864Z,1014.96
2019-04-29T01:28:26.845Z,1014.91
2019-04-29T01:29:26.823Z,1014.91
2019-04-29T01:30:26.807Z,1014.89
2019-04-29T01:31:26.789Z,1014.90
2019-04-29T01:32:26.772Z,1014.91
2019-04-29T01:33:26.749Z,1014.85
2019-04-29T01:34:26.734Z,1014.86
2019-04-29T01:35:26.716Z,1014.85
2019-04-29T01:36:26.695Z,1014.85
2019-04-29T01:37:26.677Z,1014.82
2019-04-29T01:38:26.661Z,1014.82
2019-04-29T01:39:26.640Z,1014.77
2019-04-29T01:40:26.622Z,1014.79
2019-04-29T01:41:26.605Z,1014.78
2019-04-29T01:42:26.591Z,1014.77
2019-04-29T01:43:26.569Z,1014.77
2019-04-29T01:44:26.551Z,1014.73
2019-04-29T01:45:26.531Z,1014.72
2019-04-29T01:46:26.517Z,1014.74
2019-04-29T01:47:26.494Z,1014.71
2019-04-29T01:48:26.473Z,1014.66
2019-04-29T01:49:26.463Z,1014.70
2019-04-29T01:50:26.439Z,1014.67
2019-04-29T01:51:26.423Z,1014.65
2019-04-29T01:52:26.399Z,1014.67
2019-04-29T01:53:26.385Z,1014.65
2019-04-29T01:54:26.365Z,1014.62
2019-04-29T01:55:26.344Z,1014.61
2019-04-29T01:56:26.330Z,1014.61
2019-04-29T01:57:26.312Z,1014.61
2019-04-29T01:58:26.293Z,1014.65
2019-04-29T01:59:26.284Z,1014.63
2019-04-29T02:00:26.253Z,1014.63
2019-04-29T02:01:26.237Z,1014.66
2019-04-29T02:02:26.222Z,1014.62
2019-04-29T02:03:26.199Z,1014.62
2019-04-29T02:04:26.180Z,1014.59
2019-04-29T02:05:26.168Z,1014.61
2019-04-29T02:06:26.146Z,1014.66
2019-04-29T02:07:26.125Z,1014.62
2019-04-29T02:08:26.107Z,1014.58
2019-04-29T02:09:26.091Z,1014.59
2019-04-29T02:10:26.068Z,1014.58
2019-04-29T02:11:26.057Z,1014.54
2019-04-29T02:12:26.035Z,1014.60
2019-04-29T02:13:26.015Z,1014.54
2019-04-29T02:14:25.994Z,1014.54
2019-04-29T02:15:26.005Z,1014.54
2019-04-29T02:16:25.986Z,1014.56
2019-04-29T02:17:25.940Z,1014.51
2019-04-29T02:18:25.922Z,1014.52
2019-04-29T02:19:25.908Z,1014.52
2019-04-29T02:20:25.892Z,1014.49
2019-04-29T02:21:25.866Z,1014.46
2019-04-29T02:22:25.846Z,1014.45
2019-04-29T02:23:25.831Z,1014.45
2019-04-29T02:24:25.811Z,1014.41
2019-04-29T02:25:25.796Z,1014.42
2019-04-29T02:26:25.782Z,1014.38
2019-04-29T02:27:25.755Z,1014.38
2019-04-29T02:28:25.738Z,1014.36
2019-04-29T02:29:25.719Z,1014.42
2019-04-29T02:30:25.697Z,1014.35
2019-04-29T02:31:25.683Z,1014.34
2019-04-29T02:32:25.663Z,1014.34
2019-04-29T02:33:25.646Z,1014.35
2019-04-29T02:34:25.623Z,1014.34
2019-04-29T02:35:25.609Z,1014.37
2019-04-29T02:36:29.713Z,1014.34
2019-04-29T02:37:25.567Z,1014.34
2019-04-29T02:38:25.553Z,1014.31
2019-04-29T02:39:25.531Z,1014.26
2019-04-29T02:40:25.514Z,1014.24
2019-04-29T02:41:25.494Z,1014.25
2019-04-29T02:42:25.472Z,1014.23
2019-04-29T02:43:25.465Z,1014.21
2019-04-29T02:44:25.438Z,1014.19
2019-04-29T02:45:25.425Z,1014.19
2019-04-29T02:46:25.397Z,1014.22
2019-04-29T02:47:25.373Z,1014.19
2019-04-29T02:48:30.041Z,1014.18
2019-04-29T02:49:28.596Z,1014.15
2019-04-29T02:50:25.328Z,1014.14
2019-04-29T02:51:25.415Z,1014.17
2019-04-29T02:52:25.291Z,1014.15
2019-04-29T02:53:25.285Z,1014.13
2019-04-29T02:54:25.295Z,1014.14
2019-04-29T02:55:25.243Z,1014.12
2019-04-29T02:56:25.215Z,1014.13
2019-04-29T02:57:25.203Z,1014.12
2019-04-29T02:58:25.179Z,1014.08
2019-04-29T02:59:25.160Z,1014.07
2019-04-29T03:00:25.143Z,1014.09
2019-04-29T03:01:25.133Z,1014.01
2019-04-29T03:02:25.103Z,1014.03
2019-04-29T03:03:25.084Z,1014.04
2019-04-29T03:04:25.070Z,1013.95
2019-04-29T03:05:25.051Z,1014.00
2019-04-29T03:06:25.036Z,1013.99
2019-04-29T03:07:25.008Z,1013.98
2019-04-29T03:08:24.994Z,1013.98
2019-04-29T03:09:24.977Z,1013.97
2019-04-29T03:10:24.948Z,1013.96
2019-04-29T03:11:24.934Z,1013.99
2019-04-29T03:12:24.913Z,1013.97
2019-04-29T03:13:24.898Z,1013.95
2019-04-29T03:14:24.887Z,1013.91
2019-04-29T03:15:24.862Z,1013.91
2019-04-29T03:16:24.844Z,1013.88
2019-04-29T03:17:24.822Z,1013.82
2019-04-29T03:18:24.821Z,1013.86
2019-04-29T03:19:24.786Z,1013.85
2019-04-29T03:20:24.767Z,1013.84
2019-04-29T03:21:24.748Z,1013.84
2019-04-29T03:22:24.726Z,1013.82
2019-04-29T03:23:24.712Z,1013.81
2019-04-29T03:24:24.689Z,1013.79
2019-04-29T03:25:24.671Z,1013.76
2019-04-29T03:26:24.652Z,1013.74
2019-04-29T03:27:24.636Z,1013.74
2019-04-29T03:28:24.619Z,1013.71
2019-04-29T03:29:24.607Z,1013.69
2019-04-29T03:30:24.578Z,1013.71
2019-04-29T03:31:24.595Z,1013.71
2019-04-29T03:32:24.541Z,1013.70
2019-04-29T03:33:24.529Z,1013.70
2019-04-29T03:34:24.512Z,1013.74
2019-04-29T03:35:24.483Z,1013.63
2019-04-29T03:36:24.470Z,1013.65
2019-04-29T03:37:24.447Z,1013.66
2019-04-29T03:38:24.431Z,1013.64
2019-04-29T03:39:24.410Z,1013.65
2019-04-29T03:40:24.390Z,1013.63
2019-04-29T03:41:24.371Z,1013.71
2019-04-29T03:42:24.350Z,1013.68
2019-04-29T03:43:24.334Z,1013.63
2019-04-29T03:44:29.935Z,1013.68
2019-04-29T03:45:29.864Z,1013.69
2019-04-29T03:46:29.845Z,1013.63
2019-04-29T03:47:29.832Z,1013.66
2019-04-29T03:48:29.817Z,1013.62
2019-04-29T03:49:29.793Z,1013.65
2019-04-29T03:50:29.770Z,1013.59
2019-04-29T03:51:29.750Z,1013.63
2019-04-29T03:52:29.734Z,1013.55
2019-04-29T03:53:29.712Z,1013.54
2019-04-29T03:54:29.696Z,1013.56
2019-04-29T03:55:39.132Z,1013.51
2019-04-29T03:56:29.657Z,1013.50
2019-04-29T03:57:29.641Z,1013.50
2019-04-29T03:58:29.620Z,1013.51
2019-04-29T03:59:29.604Z,1013.49
2019-04-29T04:00:29.585Z,1013.49
2019-04-29T04:01:29.562Z,1013.50
2019-04-29T04:02:29.545Z,1013.48
2019-04-29T04:03:29.527Z,1013.47
2019-04-29T04:04:29.507Z,1013.45
2019-04-29T04:05:29.497Z,1013.52
2019-04-29T04:06:29.467Z,1013.53
2019-04-29T04:07:29.617Z,1013.53
2019-04-29T04:08:29.433Z,1013.59
2019-04-29T04:09:29.439Z,1013.58
2019-04-29T04:10:29.395Z,1013.61
2019-04-29T04:11:29.375Z,1013.54
2019-04-29T04:12:29.371Z,1013.60
2019-04-29T04:13:29.354Z,1013.53
2019-04-29T04:14:29.321Z,1013.57
2019-04-29T04:15:29.301Z,1013.59
2019-04-29T04:16:29.284Z,1013.56
2019-04-29T04:17:29.266Z,1013.55
2019-04-29T04:18:29.244Z,1013.53
2019-04-29T04:19:29.226Z,1013.55
2019-04-29T04:20:29.209Z,1013.54
2019-04-29T04:21:29.191Z,1013.53
2019-04-29T04:22:29.173Z,1013.51
2019-04-29T04:23:29.153Z,1013.55
2019-04-29T04:24:29.129Z,1013.49
2019-04-29T04:25:29.117Z,1013.52
2019-04-29T04:26:29.100Z,1013.51
2019-04-29T04:27:29.076Z,1013.49
2019-04-29T04:28:29.061Z,1013.48
2019-04-29T04:29:29.042Z,1013.47
2019-04-29T04:30:29.022Z,1013.46
2019-04-29T04:31:29.001Z,1013.43
2019-04-29T04:32:28.979Z,1013.45
2019-04-29T04:33:28.956Z,1013.48
2019-04-29T04:34:28.948Z,1013.42
2019-04-29T04:35:28.925Z,1013.38
2019-04-29T04:36:28.912Z,1013.46
2019-04-29T04:37:28.890Z,1013.44
2019-04-29T04:38:28.870Z,1013.43
2019-04-29T04:39:28.851Z,1013.39
2019-04-29T04:40:28.918Z,1013.43
2019-04-29T04:41:28.815Z,1013.40
2019-04-29T04:42:30.048Z,1013.41
2019-04-29T04:43:28.775Z,1013.36
2019-04-29T04:44:28.757Z,1013.37
2019-04-29T04:45:28.743Z,1013.41
2019-04-29T04:46:28.720Z,1013.36
2019-04-29T04:47:28.790Z,1013.39
2019-04-29T04:48:28.690Z,1013.38
2019-04-29T04:49:28.662Z,1013.38
2019-04-29T04:50:28.645Z,1013.36
2019-04-29T04:51:28.627Z,1013.36
2019-04-29T04:52:28.621Z,1013.35
2019-04-29T04:53:28.590Z,1013.35
2019-04-29T04:54:31.474Z,1013.36
2019-04-29T04:55:28.552Z,1013.36
2019-04-29T04:56:28.534Z,1013.35
2019-04-29T04:57:28.510Z,1013.38
2019-04-29T04:58:28.504Z,1013.35
2019-04-29T04:59:28.478Z,1013.40
2019-04-29T05:00:28.464Z,1013.41
2019-04-29T05:01:28.443Z,1013.39
2019-04-29T05:02:28.421Z,1013.39
2019-04-29T05:03:28.404Z,1013.39
2019-04-29T05:04:28.384Z,1013.38
2019-04-29T05:05:28.368Z,1013.43
2019-04-29T05:06:28.346Z,1013.38
2019-04-29T05:07:28.330Z,1013.35
2019-04-29T05:08:28.308Z,1013.37
2019-04-29T05:09:28.290Z,1013.38
2019-04-29T05:10:28.267Z,1013.34
2019-04-29T05:11:28.256Z,1013.39
2019-04-29T05:12:28.237Z,1013.41
2019-04-29T05:13:28.817Z,1013.32
2019-04-29T05:14:28.201Z,1013.32
2019-04-29T05:15:28.181Z,1013.34
2019-04-29T05:16:28.162Z,1013.28
2019-04-29T05:17:28.140Z,1013.31
2019-04-29T05:18:28.124Z,1013.31
2019-04-29T05:19:28.103Z,1013.31
2019-04-29T05:20:28.085Z,1013.31
2019-04-29T05:21:28.136Z,1013.33
2019-04-29T05:22:28.051Z,1013.31
2019-04-29T05:23:28.036Z,1013.32
2019-04-29T05:24:28.013Z,1013.32
2019-04-29T05:25:28.000Z,1013.27
2019-04-29T05:26:27.975Z,1013.32
2019-04-29T05:27:27.959Z,1013.26
2019-04-29T05:28:27.934Z,1013.28
2019-04-29T05:29:28.796Z,1013.29
2019-04-29T05:30:27.909Z,1013.29
2019-04-29T05:31:27.876Z,1013.24
2019-04-29T05:32:27.863Z,1013.24
2019-04-29T05:33:27.851Z,1013.27
2019-04-29T05:34:27.827Z,1013.25
2019-04-29T05:35:27.804Z,1013.31
2019-04-29T05:36:27.791Z,1013.29
2019-04-29T05:37:27.768Z,1013.26
2019-04-29T05:38:27.751Z,1013.28
2019-04-29T05:39:27.731Z,1013.32
2019-04-29T05:40:27.717Z,1013.36
2019-04-29T05:41:30.177Z,1013.37
2019-04-29T05:42:27.677Z,1013.39
2019-04-29T05:43:32.041Z,1013.36
2019-04-29T05:44:27.642Z,1013.31
2019-04-29T05:45:27.623Z,1013.37
2019-04-29T05:46:27.607Z,1013.40
2019-04-29T05:47:27.583Z,1013.37
2019-04-29T05:48:31.665Z,1013.42
2019-04-29T05:49:27.547Z,1013.35
2019-04-29T05:50:27.531Z,1013.32
2019-04-29T05:51:28.531Z,1013.32
2019-04-29T05:52:30.081Z,1013.24
2019-04-29T05:53:27.477Z,1013.27
2019-04-29T05:54:31.894Z,1013.28
2019-04-29T05:55:27.439Z,1013.31
2019-04-29T05:56:27.417Z,1013.32
2019-04-29T05:57:27.402Z,1013.31
2019-04-29T05:58:27.377Z,1013.39
2019-04-29T05:59:27.361Z,1013.33
2019-04-29T06:00:27.347Z,1013.38
2019-04-29T06:01:27.323Z,1013.37
2019-04-29T06:02:33.545Z,1013.36
2019-04-29T06:03:27.286Z,1013.40
2019-04-29T06:04:28.721Z,1013.35
2019-04-29T06:05:27.253Z,1013.38
2019-04-29T06:06:27.233Z,1013.41
2019-04-29T06:07:27.222Z,1013.39
2019-04-29T06:08:27.199Z,1013.40
2019-04-29T06:09:27.183Z,1013.37
2019-04-29T06:10:27.163Z,1013.37
2019-04-29T06:11:27.146Z,1013.35
2019-04-29T06:12:27.127Z,1013.37
2019-04-29T06:13:27.102Z,1013.33
2019-04-29T06:14:27.084Z,1013.33
2019-04-29T06:15:27.066Z,1013.34
2019-04-29T06:16:27.054Z,1013.28
2019-04-29T06:17:27.030Z,1013.17
2019-04-29T06:18:27.009Z,1013.06
2019-04-29T06:19:27.001Z,1013.02
2019-04-29T06:20:26.977Z,1013.00
2019-04-29T06:21:26.964Z,1013.03
2019-04-29T06:22:26.952Z,1013.05
2019-04-29T06:23:26.919Z,1012.99
2019-04-29T06:24:26.901Z,1012.98
2019-04-29T06:25:26.882Z,1013.00
2019-04-29T06:26:26.865Z,1012.98
2019-04-29T06:27:26.848Z,1013.00
2019-04-29T06:28:28.216Z,1012.99
2019-04-29T06:29:26.810Z,1013.01
2019-04-29T06:30:26.796Z,1013.03
2019-04-29T06:31:26.775Z,1013.08
2019-04-29T06:32:26.752Z,1013.05
2019-04-29T06:33:29.049Z,1013.08
2019-04-29T06:34:26.720Z,1013.06
2019-04-29T06:35:26.699Z,1013.05
2019-04-29T06:36:26.684Z,1013.12
2019-04-29T06:37:26.669Z,1013.08
2019-04-29T06:38:26.642Z,1013.14
2019-04-29T06:39:26.627Z,1013.15
2019-04-29T06:40:30.491Z,1013.20
2019-04-29T06:41:26.590Z,1013.17
2019-04-29T06:42:26.573Z,1013.17
2019-04-29T06:43:28.914Z,1013.16
2019-04-29T06:44:26.534Z,1013.12
2019-04-29T06:45:26.513Z,1013.08
2019-04-29T06:46:26.497Z,1013.06
2019-04-29T06:47:26.483Z,1013.09
2019-04-29T06:48:26.460Z,1013.01
2019-04-29T06:49:26.443Z,1013.07
2019-04-29T06:50:26.426Z,1013.08
2019-04-29T06:51:26.405Z,1013.08
2019-04-29T06:52:26.391Z,1013.11
2019-04-29T06:53:26.372Z,1013.09
2019-04-29T06:54:26.348Z,1013.12
2019-04-29T06:55:26.337Z,1013.07
2019-04-29T06:56:26.319Z,1013.06
2019-04-29T06:57:26.298Z,1013.09
2019-04-29T06:58:26.284Z,1013.07
2019-04-29T06:59:26.263Z,1013.03
2019-04-29T07:00:26.242Z,1013.02
2019-04-29T07:01:26.234Z,1013.07
2019-04-29T07:02:26.211Z,1013.03
2019-04-29T07:03:26.721Z,1013.04
2019-04-29T07:04:26.170Z,1013.05
2019-04-29T07:05:26.150Z,1013.09
2019-04-29T07:06:26.134Z,1013.05
2019-04-29T07:07:26.120Z,1013.07
2019-04-29T07:08:26.104Z,1013.08
2019-04-29T07:09:26.084Z,1013.10
2019-04-29T07:10:27.031Z,1013.10
2019-04-29T07:11:26.055Z,1013.11
2019-04-29T07:12:26.023Z,1013.11
2019-04-29T07:13:26.012Z,1013.12
2019-04-29T07:14:28.417Z,1013.16
2019-04-29T07:15:25.974Z,1013.12
2019-04-29T07:16:27.242Z,1013.14
2019-04-29T07:17:25.936Z,1013.15
2019-04-29T07:18:25.920Z,1013.17
2019-04-29T07:19:26.611Z,1013.15
2019-04-29T07:20:25.884Z,1013.14
2019-04-29T07:21:25.860Z,1013.14
2019-04-29T07:22:27.423Z,1013.16
2019-04-29T07:23:25.825Z,1013.09
2019-04-29T07:24:25.812Z,1013.13
2019-04-29T07:25:28.763Z,1013.10
2019-04-29T07:26:25.771Z,1013.06
2019-04-29T07:27:25.761Z,1013.10
2019-04-29T07:31:28.294Z,1013.00
2019-04-29T07:32:25.665Z,1012.95
2019-04-29T07:35:16.152Z,1012.99
2019-04-29T07:37:53.031Z,1013.02
2019-04-29T07:38:56.554Z,1013.03
2019-04-29T07:39:53.005Z,1013.05
2019-04-29T07:40:52.981Z,1013.02
2019-04-29T07:41:53.682Z,1013.01
2019-04-29T07:42:52.942Z,1013.00
2019-04-29T07:43:52.924Z,1012.96
2019-04-29T07:44:54.116Z,1012.96
2019-04-29T07:45:52.887Z,1012.94
2019-04-29T07:46:59.105Z,1012.89
2019-04-29T07:47:56.516Z,1012.90
2019-04-29T07:49:01.170Z,1012.91
2019-04-29T07:49:53.094Z,1012.97
2019-04-29T07:50:52.798Z,1012.90
2019-04-29T07:51:52.781Z,1013.02
2019-04-29T07:52:52.781Z,1012.96
2019-04-29T07:53:52.745Z,1012.96
2019-04-29T07:54:56.108Z,1012.97
2019-04-29T07:55:52.712Z,1012.96
2019-04-29T07:56:52.689Z,1012.99
2019-04-29T07:57:53.280Z,1012.95
2019-04-29T07:58:52.658Z,1013.02
2019-04-29T07:59:52.636Z,1012.99
2019-04-29T08:00:52.615Z,1013.00
2019-04-29T08:01:55.687Z,1013.01
2019-04-29T08:02:52.586Z,1012.95
2019-04-29T08:03:52.565Z,1012.96
2019-04-29T08:04:52.547Z,1012.94
2019-04-29T08:05:52.533Z,1012.94
2019-04-29T08:06:52.513Z,1012.97
2019-04-29T08:07:52.500Z,1012.95
2019-04-29T08:08:55.015Z,1012.91
2019-04-29T08:09:52.463Z,1012.91
2019-04-29T08:10:56.405Z,1012.90
2019-04-29T08:11:52.423Z,1012.91
2019-04-29T08:12:52.403Z,1012.96
2019-04-29T08:13:52.387Z,1012.95
2019-04-29T08:14:53.477Z,1012.94
2019-04-29T08:15:52.356Z,1012.92
2019-04-29T08:16:52.335Z,1012.91
2019-04-29T08:18:05.726Z,1012.88
2019-04-29T08:18:53.614Z,1012.91
2019-04-29T08:19:52.286Z,1012.96
2019-04-29T08:20:52.261Z,1012.97
2019-04-29T08:21:52.259Z,1012.94
2019-04-29T08:22:52.229Z,1012.99
2019-04-29T08:23:52.211Z,1013.00
2019-04-29T08:24:52.302Z,1013.01
2019-04-29T08:25:52.179Z,1013.07
2019-04-29T08:26:52.159Z,1013.02
2019-04-29T08:27:52.145Z,1013.01
2019-04-29T08:28:52.960Z,1013.04
2019-04-29T08:29:52.105Z,1013.01
2019-04-29T08:30:52.086Z,1013.01
2019-04-29T08:31:56.704Z,1013.06
2019-04-29T08:32:52.054Z,1013.04
2019-04-29T08:33:52.033Z,1013.05
2019-04-29T08:34:53.727Z,1013.24
2019-04-29T08:35:52.003Z,1013.18
2019-04-29T08:36:58.336Z,1013.06
2019-04-29T08:37:51.964Z,1013.03
2019-04-29T08:38:51.947Z,1013.02
2019-04-29T08:40:08.325Z,1013.02
2019-04-29T08:40:51.915Z,1013.03
2019-04-29T08:41:51.898Z,1013.09
2019-04-29T08:42:51.883Z,1012.99
2019-04-29T08:43:52.526Z,1013.00
2019-04-29T08:44:54.625Z,1013.00
2019-04-29T08:45:51.831Z,1012.97
2019-04-29T08:46:52.856Z,1012.98
2019-04-29T08:47:51.795Z,1012.99
2019-04-29T08:48:51.783Z,1012.95
2019-04-29T08:49:51.763Z,1012.99
2019-04-29T08:50:51.747Z,1013.02
2019-04-29T08:51:51.730Z,1013.06
2019-04-29T08:52:51.711Z,1013.10
2019-04-29T08:53:51.697Z,1013.20
2019-04-29T08:54:55.495Z,1013.26
2019-04-29T08:55:51.671Z,1013.08
2019-04-29T08:57:03.086Z,1013.10
2019-04-29T08:57:51.633Z,1013.05
2019-04-29T08:58:51.615Z,1013.10
2019-04-29T08:59:51.595Z,1013.10
2019-04-29T09:00:55.867Z,1012.98
2019-04-29T09:01:51.565Z,1012.94
2019-04-29T09:02:51.553Z,1012.93
2019-04-29T09:03:53.632Z,1012.95
2019-04-29T09:04:53.862Z,1012.95
2019-04-29T09:06:03.992Z,1012.97
2019-04-29T09:06:51.481Z,1012.94
2019-04-29T09:07:52.497Z,1012.95
2019-04-29T09:08:55.526Z,1012.94
2019-04-29T09:09:51.436Z,1013.00
2019-04-29T09:10:51.420Z,1013.02
2019-04-29T09:11:51.406Z,1012.95
2019-04-29T09:12:51.392Z,1012.91
2019-04-29T09:13:51.372Z,1013.06
2019-04-29T09:14:51.356Z,1012.98
2019-04-29T09:15:51.343Z,1013.01
2019-04-29T09:16:51.324Z,1012.99
2019-04-29T09:17:51.320Z,1012.98
2019-04-29T09:18:51.292Z,1013.01
2019-04-29T09:19:51.276Z,1012.99
2019-04-29T09:20:54.046Z,1012.93
2019-04-29T09:23:34.948Z,1012.92
2019-04-29T09:24:34.934Z,1012.91
2019-04-29T09:25:34.912Z,1013.00
2019-04-29T09:26:34.898Z,1013.01
2019-04-29T09:27:34.882Z,1012.94
2019-04-29T09:28:34.861Z,1012.96
2019-04-29T09:29:34.846Z,1012.93
2019-04-29T09:30:34.837Z,1012.92
2019-04-29T09:31:34.818Z,1012.88
2019-04-29T09:32:38.117Z,1012.88
2019-04-29T09:33:34.785Z,1012.85
2019-04-29T09:34:34.766Z,1012.85
2019-04-29T09:35:38.683Z,1012.86
2019-04-29T09:36:34.739Z,1012.84
2019-04-29T09:37:34.719Z,1012.84
2019-04-29T09:38:36.936Z,1012.87
2019-04-29T09:39:42.968Z,1012.92
2019-04-29T09:42:18.395Z,1012.89
2019-04-29T09:43:21.351Z,1012.85
2019-04-29T09:44:18.343Z,1012.87
2019-04-29T09:45:19.499Z,1012.91
2019-04-29T09:46:18.673Z,1012.88
2019-04-29T09:47:18.294Z,1012.88
2019-04-29T09:48:18.282Z,1012.93
2019-04-29T09:50:18.503Z,1012.92
2019-04-29T09:51:22.194Z,1012.98
2019-04-29T09:52:18.218Z,1012.96
2019-04-29T09:53:18.198Z,1012.94
2019-04-29T09:54:18.188Z,1013.00
2019-04-29T09:55:18.169Z,1012.98
2019-04-29T09:56:18.154Z,1012.95
2019-04-29T09:57:18.136Z,1012.96
2019-04-29T09:58:18.123Z,1012.97
2019-04-29T09:59:18.104Z,1012.94
2019-04-29T10:00:18.088Z,1012.98
2019-04-29T10:01:20.324Z,1012.99
2019-04-29T10:02:18.063Z,1012.98
2019-04-29T10:03:18.048Z,1012.96
2019-04-29T10:04:18.029Z,1012.96
2019-04-29T10:05:18.010Z,1012.97
2019-04-29T10:06:18.002Z,1012.99
2019-04-29T10:07:17.985Z,1012.98
2019-04-29T10:08:17.971Z,1012.96
2019-04-29T10:09:17.946Z,1012.94
2019-04-29T10:10:17.935Z,1012.97
2019-04-29T10:11:17.916Z,1012.94
2019-04-29T10:12:17.902Z,1012.91
2019-04-29T10:13:17.885Z,1012.98
2019-04-29T10:14:17.868Z,1012.99
2019-04-29T10:15:17.853Z,1013.01
2019-04-29T10:16:17.841Z,1013.01
2019-04-29T10:17:17.821Z,1012.92
2019-04-29T10:18:17.803Z,1012.96
2019-04-29T10:19:17.787Z,1012.95
2019-04-29T10:20:17.777Z,1012.91
2019-04-29T10:21:21.256Z,1012.92
2019-04-29T10:22:17.743Z,1012.91
2019-04-29T10:23:17.727Z,1012.94
2019-04-29T10:24:17.714Z,1012.90
2019-04-29T10:25:17.693Z,1012.92
2019-04-29T10:26:17.688Z,1012.89
2019-04-29T10:27:17.663Z,1012.92
2019-04-29T10:28:17.651Z,1012.91
2019-04-29T10:29:18.575Z,1012.89
2019-04-29T10:30:17.615Z,1012.87
2019-04-29T10:31:17.604Z,1012.89
2019-04-29T10:32:17.591Z,1012.82
2019-04-29T10:33:19.382Z,1012.84
2019-04-29T10:34:17.554Z,1012.87
2019-04-29T10:35:17.535Z,1012.86
2019-04-29T10:36:20.581Z,1012.93
2019-04-29T10:37:17.509Z,1012.89
2019-04-29T10:38:17.489Z,1012.86
2019-04-29T10:39:18.556Z,1012.87
2019-04-29T10:40:17.461Z,1012.90
2019-04-29T10:41:17.441Z,1012.87
2019-04-29T10:42:17.431Z,1012.90
2019-04-29T10:43:17.414Z,1012.89
2019-04-29T10:44:17.395Z,1012.82
2019-04-29T10:45:17.386Z,1012.84
2019-04-29T10:46:17.361Z,1012.85
2019-04-29T10:47:17.348Z,1012.84
2019-04-29T10:48:17.333Z,1012.80
2019-04-29T10:49:17.319Z,1012.83
2019-04-29T10:50:17.304Z,1012.81
2019-04-29T10:51:17.291Z,1012.82
2019-04-29T10:52:17.276Z,1012.88
2019-04-29T10:53:17.434Z,1012.85
2019-04-29T10:54:17.246Z,1012.82
2019-04-29T10:55:17.221Z,1012.85
2019-04-29T10:56:17.207Z,1012.84
2019-04-29T10:57:17.187Z,1012.88
2019-04-29T10:58:21.985Z,1012.85
2019-04-29T10:59:17.161Z,1012.87
2019-04-29T11:00:21.881Z,1012.93
2019-04-29T11:01:17.127Z,1012.88
2019-04-29T11:02:17.117Z,1012.88
2019-04-29T11:03:20.738Z,1012.91
2019-04-29T11:04:17.091Z,1012.87
2019-04-29T11:05:17.068Z,1012.91
2019-04-29T11:06:17.057Z,1012.93
2019-04-29T11:07:19.130Z,1012.99
2019-04-29T11:08:17.028Z,1012.99
2019-04-29T11:09:17.007Z,1012.97
2019-04-29T11:10:24.839Z,1012.94
2019-04-29T11:11:24.127Z,1012.99
2019-04-29T11:12:16.962Z,1013.00
2019-04-29T11:13:17.013Z,1013.01
2019-04-29T11:14:16.934Z,1012.95
2019-04-29T11:15:16.917Z,1012.90
2019-04-29T11:16:16.898Z,1012.91
2019-04-29T11:17:16.950Z,1012.92
2019-04-29T11:18:18.175Z,1012.91
2019-04-29T11:19:16.862Z,1012.93
2019-04-29T11:20:21.185Z,1012.90
2019-04-29T11:21:16.822Z,1012.92
2019-04-29T11:22:16.817Z,1012.92
2019-04-29T11:23:18.253Z,1012.88
2019-04-29T11:24:16.780Z,1012.95
2019-04-29T11:25:16.767Z,1012.94
2019-04-29T11:26:16.752Z,1012.93
2019-04-29T11:27:16.734Z,1012.92
2019-04-29T11:28:17.710Z,1012.90
2019-04-29T11:29:16.703Z,1012.91
2019-04-29T11:30:16.684Z,1012.96
2019-04-29T11:31:19.130Z,1012.94
2019-04-29T11:32:16.658Z,1012.95
2019-04-29T11:33:16.642Z,1012.97
2019-04-29T11:34:18.002Z,1012.99
2019-04-29T11:35:16.611Z,1012.98
2019-04-29T11:36:16.596Z,1012.95
2019-04-29T11:37:17.930Z,1013.01
2019-04-29T11:38:16.564Z,1013.00
2019-04-29T11:39:16.552Z,1013.01
2019-04-29T11:40:16.538Z,1013.00
2019-04-29T11:41:19.729Z,1013.03
2019-04-29T11:42:16.502Z,1013.00
2019-04-29T11:43:17.282Z,1012.96
2019-04-29T11:44:16.477Z,1012.95
2019-04-29T11:45:16.460Z,1012.96
2019-04-29T11:46:16.469Z,1012.94
2019-04-29T11:47:16.436Z,1012.98
2019-04-29T11:48:16.422Z,1012.96
2019-04-29T11:49:16.402Z,1012.95
2019-04-29T11:50:16.391Z,1012.93
2019-04-29T11:51:16.372Z,1012.91
2019-04-29T11:52:16.362Z,1012.95
2019-04-29T11:53:16.340Z,1012.92
2019-04-29T11:54:18.208Z,1012.95
2019-04-29T11:55:18.518Z,1012.89
2019-04-29T11:56:16.296Z,1012.90
2019-04-29T11:57:17.103Z,1012.90
2019-04-29T11:58:16.270Z,1012.91
2019-04-29T11:59:16.356Z,1012.84
2019-04-29T12:00:16.236Z,1012.83
2019-04-29T12:01:16.221Z,1012.84
2019-04-29T12:02:16.205Z,1012.80
2019-04-29T12:03:18.983Z,1012.76
2019-04-29T12:04:16.182Z,1012.77
2019-04-29T12:05:16.163Z,1012.77
2019-04-29T12:06:20.504Z,1012.80
2019-04-29T12:07:16.135Z,1012.77
2019-04-29T12:08:18.254Z,1012.74
2019-04-29T12:09:16.108Z,1012.75
2019-04-29T12:10:16.090Z,1012.77
2019-04-29T12:11:16.077Z,1012.75
2019-04-29T12:12:16.061Z,1012.74
2019-04-29T12:13:18.955Z,1012.77
2019-04-29T12:14:16.038Z,1012.75
2019-04-29T12:15:16.064Z,1012.76
2019-04-29T12:16:19.728Z,1012.75